Star Kvarven — LAJK7 — position and weather

sailwx.info

Track history (hours):
 
Tides and Currents Weather Stations Pressure Air Temp Water Temp Dewpoint Dewpoint Depression Visibility Wind Speed Wind Dir Waves Ship Positions

Star Kvarven

Last reported at 2017-Sep-12 17:00 UTC. Time now 2017-Sep-23 14:55 UTC.
Position N 29°29' W 094°52'.
Warning: this ship's position is 10 days out of date.

Length 208 m; draft 8.1 m.

Type: Cargo ship. MMSI: 257661000.

Date/timePositionNaut miles runAvg speedWind from/ knotsBaromVisibWave heightAir tempDewpointWater temp
2017-Sep-12 17:00N 29°29' W 094°52'613.3
2017-Sep-12 16:31N 29°34' W 094°56'611.9
2017-Sep-12 16:01N 29°40' W 094°58'4 8.7
2017-Sep-12 15:30N 29°43' W 095°01'3 7.0
2017-Sep-12 15:00N 29°46' W 095°04'3 6.1
2017-Sep-12 14:29N 29°44' W 095°08'3 6.6
2017-Sep-12 14:01N 29°45' W 095°11'3 5.4
2017-Sep-12 13:30N 29°43' W 095°14'1 2.3
2017-Sep-12 12:55N 29°44' W 095°15'0 1.0
2017-Sep-12 12:30N 29°44' W 095°16'0 0.0
2017-Sep-12 12:00N 29°44' W 095°16'0 0.0
2017-Sep-12 11:30N 29°44' W 095°16'0 0.0
2017-Sep-12 11:01N 29°44' W 095°16'0 0.0
2017-Sep-12 10:08N 29°44' W 095°16'0 0.0
2017-Sep-12 09:50N 29°44' W 095°16'0 0.0
2017-Sep-12 09:23N 29°44' W 095°16'0 0.0
2017-Sep-12 06:32N 29°44' W 095°16'0 0.0
2017-Sep-12 06:05N 29°44' W 095°16'0 0.0
2017-Sep-12 05:59N 29°44' W 095°16'0 0.0
2017-Sep-12 05:29N 29°44' W 095°16'0 0.0
2017-Sep-12 04:35N 29°44' W 095°16'0 0.0
2017-Sep-12 04:26N 29°44' W 095°16'0 0.0
2017-Sep-12 03:50N 29°44' W 095°16'0 0.0
2017-Sep-10 03:32N 29°44' W 095°16'0 0.0
2017-Sep-10 03:08N 29°44' W 095°16'0 0.0
2017-Sep-10 02:50N 29°44' W 095°16'0 0.0
2017-Sep-09 19:08N 29°44' W 095°16'0 0.0
2017-Sep-09 18:59N 29°44' W 095°16'0 0.0
2017-Sep-09 18:20N 29°44' W 095°16'0 0.0
2017-Sep-09 17:59N 29°44' W 095°16'0 0.0
2017-Sep-09 10:02N 29°44' W 095°16'0 0.0
2017-Sep-09 09:32N 29°44' W 095°16'0 0.1
2017-Sep-09 09:26N 29°44' W 095°16'0 0.0
2017-Sep-09 05:56N 29°44' W 095°16'0 0.0
2017-Sep-09 04:14N 29°44' W 095°16'0 0.0
2017-Sep-09 03:44N 29°44' W 095°16'0 0.0
2017-Sep-09 03:14N 29°44' W 095°16'0 0.0
2017-Sep-09 02:50N 29°44' W 095°16'0 0.0
2017-Sep-09 02:26N 29°44' W 095°16'0 0.0
2017-Sep-09 01:47N 29°44' W 095°16'0 0.0
2017-Sep-09 01:26N 29°44' W 095°16'0 0.0
2017-Sep-08 16:43N 29°44' W 095°15'1 4.5
2017-Sep-08 16:30N 29°43' W 095°14'3 5.2
2017-Sep-08 16:00N 29°45' W 095°12'3 5.5
2017-Sep-08 15:30N 29°44' W 095°09'3 5.9
2017-Sep-08 15:00N 29°45' W 095°06'3 6.3
2017-Sep-08 14:30N 29°44' W 095°02'4 8.4
2017-Sep-08 14:00N 29°41' W 094°59'612.1
2017-Sep-08 13:30N 29°35' W 094°56'713.0
2017-Sep-08 13:00N 29°30' W 094°52'714.1
2017-Sep-08 12:30N 29°23' W 094°49'713.4
2017-Sep-08 11:57N 29°20' W 094°41'  
Track history (hours):
 
Tides and Currents Weather Stations Pressure Air Temp Water Temp Dewpoint Dewpoint Depression Visibility Wind Speed Wind Dir Waves Ship Positions

Star Kvarven

Last reported at 2017-Sep-12 17:00 UTC. Time now 2017-Sep-23 14:55 UTC.
Position N 29°29' W 094°52'.
Warning: this ship's position is 10 days out of date.

Length 208 m; draft 8.1 m.

Type: Cargo ship. MMSI: 257661000.

Date/timePositionNaut miles runAvg speedWind from/ knotsBaromVisibWave heightAir tempDewpointWater temp
2017-Sep-12 17:00N 29°29' W 094°52'613.3
2017-Sep-12 16:31N 29°34' W 094°56'611.9
2017-Sep-12 16:01N 29°40' W 094°58'4 8.7
2017-Sep-12 15:30N 29°43' W 095°01'3 7.0
2017-Sep-12 15:00N 29°46' W 095°04'3 6.1
2017-Sep-12 14:29N 29°44' W 095°08'3 6.6
2017-Sep-12 14:01N 29°45' W 095°11'3 5.4
2017-Sep-12 13:30N 29°43' W 095°14'1 2.3
2017-Sep-12 12:55N 29°44' W 095°15'0 1.0
2017-Sep-12 12:30N 29°44' W 095°16'0 0.0
2017-Sep-12 12:00N 29°44' W 095°16'0 0.0
2017-Sep-12 11:30N 29°44' W 095°16'0 0.0
2017-Sep-12 11:01N 29°44' W 095°16'0 0.0
2017-Sep-12 10:08N 29°44' W 095°16'0 0.0
2017-Sep-12 09:50N 29°44' W 095°16'0 0.0
2017-Sep-12 09:23N 29°44' W 095°16'0 0.0
2017-Sep-12 06:32N 29°44' W 095°16'0 0.0
2017-Sep-12 06:05N 29°44' W 095°16'0 0.0
2017-Sep-12 05:59N 29°44' W 095°16'0 0.0
2017-Sep-12 05:29N 29°44' W 095°16'0 0.0
2017-Sep-12 04:35N 29°44' W 095°16'0 0.0
2017-Sep-12 04:26N 29°44' W 095°16'0 0.0
2017-Sep-12 03:50N 29°44' W 095°16'0 0.0
2017-Sep-10 03:32N 29°44' W 095°16'0 0.0
2017-Sep-10 03:08N 29°44' W 095°16'0 0.0
2017-Sep-10 02:50N 29°44' W 095°16'0 0.0
2017-Sep-09 19:08N 29°44' W 095°16'0 0.0
2017-Sep-09 18:59N 29°44' W 095°16'0 0.0
2017-Sep-09 18:20N 29°44' W 095°16'0 0.0
2017-Sep-09 17:59N 29°44' W 095°16'0 0.0
2017-Sep-09 10:02N 29°44' W 095°16'0 0.0
2017-Sep-09 09:32N 29°44' W 095°16'0 0.1
2017-Sep-09 09:26N 29°44' W 095°16'0 0.0
2017-Sep-09 05:56N 29°44' W 095°16'0 0.0
2017-Sep-09 04:14N 29°44' W 095°16'0 0.0
2017-Sep-09 03:44N 29°44' W 095°16'0 0.0
2017-Sep-09 03:14N 29°44' W 095°16'0 0.0
2017-Sep-09 02:50N 29°44' W 095°16'0 0.0
2017-Sep-09 02:26N 29°44' W 095°16'0 0.0
2017-Sep-09 01:47N 29°44' W 095°16'0 0.0
2017-Sep-09 01:26N 29°44' W 095°16'0 0.0
2017-Sep-08 16:43N 29°44' W 095°15'1 4.5
2017-Sep-08 16:30N 29°43' W 095°14'3 5.2
2017-Sep-08 16:00N 29°45' W 095°12'3 5.5
2017-Sep-08 15:30N 29°44' W 095°09'3 5.9
2017-Sep-08 15:00N 29°45' W 095°06'3 6.3
2017-Sep-08 14:30N 29°44' W 095°02'4 8.4
2017-Sep-08 14:00N 29°41' W 094°59'612.1
2017-Sep-08 13:30N 29°35' W 094°56'713.0
2017-Sep-08 13:00N 29°30' W 094°52'714.1
2017-Sep-08 12:30N 29°23' W 094°49'713.4
2017-Sep-08 11:57N 29°20' W 094°41'  

Dump ship's entire track history